Oranjeborg — PIAG — position and weather

sailwx.info

Track history (hours):
 
Tides and Currents Weather Stations Pressure Air Temp Water Temp Dewpoint Dewpoint Depression Visibility Wind Speed Wind Dir Waves Ship Positions

Oranjeborg

Last reported at 2018-Jun-07 23:18 UTC. Time now 2018-Jun-18 23:16 UTC.
Position N 58°44' W 003°42'.
Warning: this ship's position is 10 days out of date.

Length 159 m; beam 26 m.

Type: Ship. MMSI: 246265000.

Date/timePositionNaut miles runAvg speedWind from/ knotsBaromVisibWave heightAir tempDewpointWater temp
2018-Jun-07 23:18N 58°44' W 003°42'412.9
2018-Jun-07 23:01N 58°44' W 003°35'713.5
2018-Jun-07 22:30N 58°44' W 003°22'715.0
2018-Jun-07 22:00N 58°43' W 003°07'714.8
2018-Jun-07 21:30N 58°42' W 002°53'19612.4
2018-Jun-07 05:40N 58°09' E 003°16'312.8
2018-Jun-07 05:26N 58°08' E 003°21'612.8
2018-Jun-07 04:59N 58°07' E 003°32'612.7
2018-Jun-07 04:30N 58°06' E 003°43'1412.8
2018-Jun-07 03:25N 58°03' E 004°09'1812.9
2018-Jun-07 02:03N 57°58' E 004°41'112.9
2018-Jun-07 01:58N 57°58' E 004°42'6512.6
2018-Jun-06 20:48N 57°39' E 006°40'512.4
2018-Jun-06 20:23N 57°39' E 006°50'1812.5
2018-Jun-06 18:58N 57°39' E 007°23'612.3
2018-Jun-06 18:30N 57°39' E 007°33'612.2
2018-Jun-06 18:00N 57°39' E 007°45'612.5
2018-Jun-06 17:30N 57°39' E 007°57'612.7
2018-Jun-06 17:00N 57°39' E 008°08'612.8
2018-Jun-06 16:30N 57°40' E 008°20'612.8
2018-Jun-06 16:00N 57°41' E 008°32'612.5
2018-Jun-06 15:30N 57°42' E 008°43'612.4
2018-Jun-06 15:00N 57°43' E 008°55'1012.5
2018-Jun-06 14:13N 57°44' E 009°13'312.5
2018-Jun-06 14:00N 57°45' E 009°19'612.2
2018-Jun-06 13:29N 57°45' E 009°30'612.3
2018-Jun-06 13:00N 57°45' E 009°41'612.6
2018-Jun-06 12:30N 57°46' E 009°53'712.2
2018-Jun-06 11:55N 57°47' E 010°06'612.1
2018-Jun-06 11:27N 57°47' E 010°17'1412.4
2018-Jun-06 10:18N 57°49' E 010°43'712.0
2018-Jun-06 09:42N 57°46' E 010°56'412.5
2018-Jun-06 09:23N 57°44' E 011°03'512.9
2018-Jun-06 09:00N 57°42' E 011°11'612.8
2018-Jun-06 08:30N 57°39' E 011°21'612.8
2018-Jun-06 08:00N 57°37' E 011°32'4 8.7
2018-Jun-06 07:30N 57°36' E 011°40'0 0.9
2018-Jun-06 06:59N 57°36' E 011°41'0 0.0
2018-Jun-06 06:26N 57°36' E 011°41'0 0.0
2018-Jun-06 05:58N 57°36' E 011°41'0 0.0
2018-Jun-06 05:28N 57°36' E 011°41'0 0.0
2018-Jun-06 04:58N 57°36' E 011°41'0 0.0
2018-Jun-06 04:28N 57°36' E 011°41'0 0.0
2018-Jun-06 04:01N 57°36' E 011°41'0 0.1
2018-Jun-06 03:31N 57°36' E 011°41'3 5.1
2018-Jun-06 03:01N 57°34' E 011°38'611.5
2018-Jun-06 02:30N 57°28' E 011°38'612.3
2018-Jun-06 02:00N 57°22' E 011°39'4811.5
2018-Jun-05 21:49N 56°34' E 011°41'412.6
2018-Jun-05 21:30N 56°30' E 011°37'812.7
2018-Jun-05 20:54N 56°24' E 011°31'512.7
2018-Jun-05 20:30N 56°19' E 011°26'712.7
2018-Jun-05 19:57N 56°13' E 011°19'812.3
2018-Jun-05 19:19N 56°07' E 011°11'411.9
2018-Jun-05 18:58N 56°03' E 011°08'612.0
2018-Jun-05 18:27N 55°58' E 011°02'611.9
2018-Jun-05 17:55N 55°53' E 010°55'511.6
2018-Jun-05 17:29N 55°49' E 010°49'1111.3
2018-Jun-05 16:32N 55°38' E 010°47'111.6
2018-Jun-05 16:26N 55°37' E 010°48'511.2
2018-Jun-05 15:58N 55°33' E 010°52'5 9.8
2018-Jun-05 15:30N 55°29' E 010°55'611.3
2018-Jun-05 15:01N 55°24' E 011°01'611.3
2018-Jun-05 14:31N 55°18' E 011°03'611.3
2018-Jun-05 14:00N 55°13' E 011°06'611.7
2018-Jun-05 13:31N 55°07' E 011°03'611.4
2018-Jun-05 13:00N 55°02' E 011°02'510.9
2018-Jun-05 12:30N 54°57' E 010°58'611.2
2018-Jun-05 12:00N 54°52' E 010°53'612.2
2018-Jun-05 11:30N 54°46' E 010°53'611.9
2018-Jun-05 11:00N 54°41' E 010°58'612.3
2018-Jun-05 10:30N 54°37' E 011°07'611.4
2018-Jun-05 10:00N 54°35' E 011°15'611.7
2018-Jun-05 09:30N 54°33' E 011°25'611.4
2018-Jun-05 09:00N 54°30' E 011°34'611.8
2018-Jun-05 08:30N 54°29' E 011°44'612.2
2018-Jun-05 08:00N 54°27' E 011°54'612.3
2018-Jun-05 07:29N 54°27' E 012°05'510.6
2018-Jun-05 07:00N 54°29' E 012°12'713.1
2018-Jun-05 06:30N 54°36' E 012°15'611.9
2018-Jun-05 06:00N 54°39' E 012°23'1212.8
2018-Jun-05 05:05N 54°46' E 012°40'113.0
2018-Jun-05 04:59N 54°47' E 012°42'612.9
2018-Jun-05 04:30N 54°49' E 012°52'1512.8
2018-Jun-05 03:20N 54°54' E 013°16'412.6
2018-Jun-05 03:00N 54°56' E 013°23'812.5
2018-Jun-05 02:23N 54°58' E 013°36'612.2
2018-Jun-05 01:55N 55°00' E 013°45'512.3
2018-Jun-05 01:30N 55°02' E 013°53'612.4
2018-Jun-05 01:00N 55°04' E 014°04'612.7
2018-Jun-05 00:30N 55°09' E 014°11'713.0
2018-Jun-05 00:00N 55°14' E 014°18'613.0
2018-Jun-04 23:30N 55°19' E 014°25'612.8
2018-Jun-04 23:00N 55°24' E 014°32'612.5
2018-Jun-04 22:31N 55°28' E 014°40'612.6
2018-Jun-04 22:00N 55°31' E 014°50'612.5
2018-Jun-04 21:30N 55°35' E 014°59'712.7
2018-Jun-04 20:56N 55°39' E 015°10'612.6
2018-Jun-04 20:30N 55°41' E 015°19'812.9
2018-Jun-04 19:54N 55°45' E 015°31'23612.9
2018-Jun-04 01:37N 59°03' E 019°27'512.3
2018-Jun-04 01:13N 59°07' E 019°32'1212.4
2018-Jun-04 00:17N 59°17' E 019°44'412.3
2018-Jun-04 00:00N 59°20' E 019°47'812.7
2018-Jun-03 23:22N 59°28' E 019°54'512.4
2018-Jun-03 22:58N 59°32' E 019°57'510.7
2018-Jun-03 22:30N 59°37' E 019°55'613.0
2018-Jun-03 22:00N 59°42' E 019°48'713.2
2018-Jun-03 21:30N 59°47' E 019°39'713.3
2018-Jun-03 21:00N 59°52' E 019°31'713.1
2018-Jun-03 20:30N 59°57' E 019°22'713.2
2018-Jun-03 20:00N 60°03' E 019°14'713.3
2018-Jun-03 19:30N 60°08' E 019°05'612.2
2018-Jun-03 19:00N 60°13' E 019°01'612.7
2018-Jun-03 18:30N 60°20' E 018°60'612.7
2018-Jun-03 18:00N 60°26' E 018°59'612.5
2018-Jun-03 17:29N 60°32' E 019°00'  
Track history (hours):
 
Tides and Currents Weather Stations Pressure Air Temp Water Temp Dewpoint Dewpoint Depression Visibility Wind Speed Wind Dir Waves Ship Positions

Oranjeborg

Last reported at 2018-Jun-07 23:18 UTC. Time now 2018-Jun-18 23:16 UTC.
Position N 58°44' W 003°42'.
Warning: this ship's position is 10 days out of date.

Length 159 m; beam 26 m.

Type: Ship. MMSI: 246265000.

Date/timePositionNaut miles runAvg speedWind from/ knotsBaromVisibWave heightAir tempDewpointWater temp
2018-Jun-07 23:18N 58°44' W 003°42'412.9
2018-Jun-07 23:01N 58°44' W 003°35'713.5
2018-Jun-07 22:30N 58°44' W 003°22'715.0
2018-Jun-07 22:00N 58°43' W 003°07'714.8
2018-Jun-07 21:30N 58°42' W 002°53'19612.4
2018-Jun-07 05:40N 58°09' E 003°16'312.8
2018-Jun-07 05:26N 58°08' E 003°21'612.8
2018-Jun-07 04:59N 58°07' E 003°32'612.7
2018-Jun-07 04:30N 58°06' E 003°43'1412.8
2018-Jun-07 03:25N 58°03' E 004°09'1812.9
2018-Jun-07 02:03N 57°58' E 004°41'112.9
2018-Jun-07 01:58N 57°58' E 004°42'6512.6
2018-Jun-06 20:48N 57°39' E 006°40'512.4
2018-Jun-06 20:23N 57°39' E 006°50'1812.5
2018-Jun-06 18:58N 57°39' E 007°23'612.3
2018-Jun-06 18:30N 57°39' E 007°33'612.2
2018-Jun-06 18:00N 57°39' E 007°45'612.5
2018-Jun-06 17:30N 57°39' E 007°57'612.7
2018-Jun-06 17:00N 57°39' E 008°08'612.8
2018-Jun-06 16:30N 57°40' E 008°20'612.8
2018-Jun-06 16:00N 57°41' E 008°32'612.5
2018-Jun-06 15:30N 57°42' E 008°43'612.4
2018-Jun-06 15:00N 57°43' E 008°55'1012.5
2018-Jun-06 14:13N 57°44' E 009°13'312.5
2018-Jun-06 14:00N 57°45' E 009°19'612.2
2018-Jun-06 13:29N 57°45' E 009°30'612.3
2018-Jun-06 13:00N 57°45' E 009°41'612.6
2018-Jun-06 12:30N 57°46' E 009°53'712.2
2018-Jun-06 11:55N 57°47' E 010°06'612.1
2018-Jun-06 11:27N 57°47' E 010°17'1412.4
2018-Jun-06 10:18N 57°49' E 010°43'712.0
2018-Jun-06 09:42N 57°46' E 010°56'412.5
2018-Jun-06 09:23N 57°44' E 011°03'512.9
2018-Jun-06 09:00N 57°42' E 011°11'612.8
2018-Jun-06 08:30N 57°39' E 011°21'612.8
2018-Jun-06 08:00N 57°37' E 011°32'4 8.7
2018-Jun-06 07:30N 57°36' E 011°40'0 0.9
2018-Jun-06 06:59N 57°36' E 011°41'0 0.0
2018-Jun-06 06:26N 57°36' E 011°41'0 0.0
2018-Jun-06 05:58N 57°36' E 011°41'0 0.0
2018-Jun-06 05:28N 57°36' E 011°41'0 0.0
2018-Jun-06 04:58N 57°36' E 011°41'0 0.0
2018-Jun-06 04:28N 57°36' E 011°41'0 0.0
2018-Jun-06 04:01N 57°36' E 011°41'0 0.1
2018-Jun-06 03:31N 57°36' E 011°41'3 5.1
2018-Jun-06 03:01N 57°34' E 011°38'611.5
2018-Jun-06 02:30N 57°28' E 011°38'612.3
2018-Jun-06 02:00N 57°22' E 011°39'4811.5
2018-Jun-05 21:49N 56°34' E 011°41'412.6
2018-Jun-05 21:30N 56°30' E 011°37'812.7
2018-Jun-05 20:54N 56°24' E 011°31'512.7
2018-Jun-05 20:30N 56°19' E 011°26'712.7
2018-Jun-05 19:57N 56°13' E 011°19'812.3
2018-Jun-05 19:19N 56°07' E 011°11'411.9
2018-Jun-05 18:58N 56°03' E 011°08'612.0
2018-Jun-05 18:27N 55°58' E 011°02'611.9
2018-Jun-05 17:55N 55°53' E 010°55'511.6
2018-Jun-05 17:29N 55°49' E 010°49'1111.3
2018-Jun-05 16:32N 55°38' E 010°47'111.6
2018-Jun-05 16:26N 55°37' E 010°48'511.2
2018-Jun-05 15:58N 55°33' E 010°52'5 9.8
2018-Jun-05 15:30N 55°29' E 010°55'611.3
2018-Jun-05 15:01N 55°24' E 011°01'611.3
2018-Jun-05 14:31N 55°18' E 011°03'611.3
2018-Jun-05 14:00N 55°13' E 011°06'611.7
2018-Jun-05 13:31N 55°07' E 011°03'611.4
2018-Jun-05 13:00N 55°02' E 011°02'510.9
2018-Jun-05 12:30N 54°57' E 010°58'611.2
2018-Jun-05 12:00N 54°52' E 010°53'612.2
2018-Jun-05 11:30N 54°46' E 010°53'611.9
2018-Jun-05 11:00N 54°41' E 010°58'612.3
2018-Jun-05 10:30N 54°37' E 011°07'611.4
2018-Jun-05 10:00N 54°35' E 011°15'611.7
2018-Jun-05 09:30N 54°33' E 011°25'611.4
2018-Jun-05 09:00N 54°30' E 011°34'611.8
2018-Jun-05 08:30N 54°29' E 011°44'612.2
2018-Jun-05 08:00N 54°27' E 011°54'612.3
2018-Jun-05 07:29N 54°27' E 012°05'510.6
2018-Jun-05 07:00N 54°29' E 012°12'713.1
2018-Jun-05 06:30N 54°36' E 012°15'611.9
2018-Jun-05 06:00N 54°39' E 012°23'1212.8
2018-Jun-05 05:05N 54°46' E 012°40'113.0
2018-Jun-05 04:59N 54°47' E 012°42'612.9
2018-Jun-05 04:30N 54°49' E 012°52'1512.8
2018-Jun-05 03:20N 54°54' E 013°16'412.6
2018-Jun-05 03:00N 54°56' E 013°23'812.5
2018-Jun-05 02:23N 54°58' E 013°36'612.2
2018-Jun-05 01:55N 55°00' E 013°45'512.3
2018-Jun-05 01:30N 55°02' E 013°53'612.4
2018-Jun-05 01:00N 55°04' E 014°04'612.7
2018-Jun-05 00:30N 55°09' E 014°11'713.0
2018-Jun-05 00:00N 55°14' E 014°18'613.0
2018-Jun-04 23:30N 55°19' E 014°25'612.8
2018-Jun-04 23:00N 55°24' E 014°32'612.5
2018-Jun-04 22:31N 55°28' E 014°40'612.6
2018-Jun-04 22:00N 55°31' E 014°50'612.5
2018-Jun-04 21:30N 55°35' E 014°59'712.7
2018-Jun-04 20:56N 55°39' E 015°10'612.6
2018-Jun-04 20:30N 55°41' E 015°19'812.9
2018-Jun-04 19:54N 55°45' E 015°31'23612.9
2018-Jun-04 01:37N 59°03' E 019°27'512.3
2018-Jun-04 01:13N 59°07' E 019°32'1212.4
2018-Jun-04 00:17N 59°17' E 019°44'412.3
2018-Jun-04 00:00N 59°20' E 019°47'812.7
2018-Jun-03 23:22N 59°28' E 019°54'512.4
2018-Jun-03 22:58N 59°32' E 019°57'510.7
2018-Jun-03 22:30N 59°37' E 019°55'613.0
2018-Jun-03 22:00N 59°42' E 019°48'713.2
2018-Jun-03 21:30N 59°47' E 019°39'713.3
2018-Jun-03 21:00N 59°52' E 019°31'713.1
2018-Jun-03 20:30N 59°57' E 019°22'713.2
2018-Jun-03 20:00N 60°03' E 019°14'713.3
2018-Jun-03 19:30N 60°08' E 019°05'612.2
2018-Jun-03 19:00N 60°13' E 019°01'612.7
2018-Jun-03 18:30N 60°20' E 018°60'612.7
2018-Jun-03 18:00N 60°26' E 018°59'612.5
2018-Jun-03 17:29N 60°32' E 019°00'  

Dump ship's entire track history